Time;durP1;ratioP1;P1;durP2;ratioP2;P2;SDS_P1;SDS_P2;PMS_P1;PMS_P2;Temp;Humidity;BMP_temperature;BMP_pressure;BME280_temperature;BME280_humidity;BME280_pressure;Samples;Min_cycle;Max_cycle;Signal;HPM_P1;HPM_P2
2023/10/15 08:00:15;;;;;;;;;5.00;3.00;;;;;17.73;50.80;101979.94;5113798;27;45269;-62
2023/10/15 08:02:41;;;;;;;;;4.00;4.00;;;;;18.20;49.60;101993.50;5096631;27;45364;-63
2023/10/15 08:05:08;;;;;;;;;3.00;2.25;;;;;18.58;48.70;101994.00;5096060;27;45282;-64
2023/10/15 08:07:34;;;;;;;;;3.00;3.00;;;;;18.76;48.41;101992.91;5095832;27;45846;-65
2023/10/15 08:10:01;;;;;;;;;2.00;2.00;;;;;19.02;47.51;101996.75;5094018;27;45579;-63
2023/10/15 08:12:27;;;;;;;;;2.00;2.00;;;;;18.98;46.57;101997.00;5095214;27;45544;-62
2023/10/15 08:14:54;;;;;;;;;1.00;1.00;;;;;19.15;46.57;101992.28;5096540;27;45288;-63
2023/10/15 08:17:21;;;;;;;;;2.00;2.00;;;;;19.16;45.86;101985.91;5097118;27;45431;-62
2023/10/15 08:19:46;;;;;;;;;2.25;2.25;;;;;19.41;46.13;101997.94;5095873;27;45596;-63
2023/10/15 08:22:12;;;;;;;;;4.00;2.00;;;;;19.52;46.04;101990.03;5096048;27;45331;-58
2023/10/15 08:24:38;;;;;;;;;6.00;2.25;;;;;19.60;44.73;101994.00;5095540;27;45441;-59
2023/10/15 08:27:05;;;;;;;;;2.00;2.00;;;;;19.52;44.36;101992.75;5095929;27;45324;-60
2023/10/15 08:29:30;;;;;;;;;3.75;2.25;;;;;19.44;44.46;102005.94;5094817;27;46077;-58
2023/10/15 08:31:55;;;;;;;;;2.00;2.00;;;;;19.63;44.72;102009.28;5096078;27;45184;-57
2023/10/15 08:36:56;;;;;;;;;2.00;2.00;;;;;19.83;44.61;102000.69;3281667;26;46038;-78
2023/10/15 08:39:23;;;;;;;;;2.00;2.00;;;;;19.99;44.34;102008.72;5030224;28;45525;-76
2023/10/15 08:41:51;;;;;;;;;1.50;0.25;;;;;20.06;43.49;102001.94;5031382;28;45177;-80
2023/10/15 08:44:18;;;;;;;;;1.50;1.00;;;;;20.03;42.00;101983.06;5036646;28;45406;-83
2023/10/15 08:46:47;;;;;;;;;3.50;1.00;;;;;20.18;42.01;102012.00;5041065;28;45322;-78
2023/10/15 08:49:15;;;;;;;;;2.00;1.00;;;;;20.27;41.80;102018.69;5030185;28;46065;-78
2023/10/15 08:51:41;;;;;;;;;1.00;1.00;;;;;20.32;41.50;102005.66;5029992;28;45228;-79
2023/10/15 08:54:11;;;;;;;;;0.75;0.75;;;;;20.45;41.06;102020.22;5030179;28;45235;-78
2023/10/15 08:56:37;;;;;;;;;1.75;1.50;;;;;20.44;40.97;102006.69;5012262;28;46114;-79
2023/10/15 08:59:04;;;;;;;;;1.25;1.25;;;;;20.56;40.47;102019.50;5028560;28;45547;-79
2023/10/15 09:01:32;;;;;;;;;5.00;1.50;;;;;20.62;40.82;102019.09;5017347;28;45322;-78
2023/10/15 09:03:57;;;;;;;;;0.75;0.75;;;;;20.67;40.17;102017.78;4998665;28;45186;-78
2023/10/15 09:06:23;;;;;;;;;2.75;2.00;;;;;20.61;40.16;102015.47;5016410;28;45405;-79
2023/10/15 09:08:50;;;;;;;;;3.25;2.00;;;;;20.72;40.46;102033.84;5015916;28;45989;-80
2023/10/15 09:11:16;;;;;;;;;2.00;2.00;;;;;20.77;40.43;102037.13;5023796;28;45463;-78
2023/10/15 09:13:49;;;;;;;;;2.25;1.50;;;;;20.59;40.30;102009.25;5016734;28;45514;-78
2023/10/15 09:16:14;;;;;;;;;2.00;2.00;;;;;20.70;40.47;102030.34;5012966;28;45268;-77
2023/10/15 09:18:40;;;;;;;;;2.00;2.00;;;;;20.68;40.12;102007.75;4998197;28;47743;-77
2023/10/15 09:21:05;;;;;;;;;0.50;0.50;;;;;20.86;40.22;102019.25;5016274;28;45411;-79
2023/10/15 09:23:37;;;;;;;;;2.00;2.00;;;;;20.97;39.84;102028.44;5016010;28;45367;-77
2023/10/15 09:26:04;;;;;;;;;1.00;1.00;;;;;21.05;39.97;102033.38;4997444;28;45508;-78
2023/10/15 09:28:30;;;;;;;;;1.25;1.25;;;;;21.15;40.02;102027.19;5016339;28;45389;-80
2023/10/15 09:31:09;;;;;;;;;1.00;1.00;;;;;21.08;39.80;102022.25;5015995;28;45457;-79
2023/10/15 09:33:35;;;;;;;;;3.00;2.00;;;;;21.29;39.65;102033.53;5016486;28;45344;-79
2023/10/15 09:36:03;;;;;;;;;1.25;1.25;;;;;21.31;39.40;102027.00;5015260;28;45280;-78
2023/10/15 09:38:32;;;;;;;;;1.00;1.00;;;;;21.48;38.48;102044.91;4998077;28;48170;-78
2023/10/15 09:40:59;;;;;;;;;1.75;1.75;;;;;21.41;38.57;102025.38;5016331;28;45783;-77
2023/10/15 09:43:31;;;;;;;;;1.00;1.00;;;;;21.43;38.42;102023.41;5016856;28;45301;-77
2023/10/15 09:45:58;;;;;;;;;1.00;1.00;;;;;21.51;37.76;102036.50;4998139;28;45733;-78
2023/10/15 09:48:24;;;;;;;;;0.75;0.75;;;;;21.48;37.76;102031.25;5016014;28;45409;-79
2023/10/15 09:50:53;;;;;;;;;1.00;1.00;;;;;21.57;37.62;102041.53;5016212;28;45352;-77
2023/10/15 09:53:21;;;;;;;;;0.00;0.00;;;;;21.45;36.69;102018.69;4998260;28;45525;-80
2023/10/15 09:55:47;;;;;;;;;0.00;0.00;;;;;21.68;36.76;102041.63;5015812;28;45585;-78
2023/10/15 09:58:15;;;;;;;;;0.00;0.00;;;;;21.60;36.07;102034.97;4998098;28;48472;-78
2023/10/15 10:03:25;;;;;;;;;0.50;0.00;;;;;21.73;36.43;102044.91;5016080;28;45405;-78
2023/10/15 10:06:03;;;;;;;;;0.00;0.00;;;;;21.82;35.59;102046.09;4997599;28;46088;-80
2023/10/15 10:09:16;;;;;;;;;0.00;0.00;;;;;22.04;35.72;102043.56;5015691;28;45515;-76
2023/10/15 10:11:45;;;;;;;;;0.75;0.75;;;;;21.94;34.48;102047.94;4958894;28;46217;-78
2023/10/15 10:14:24;;;;;;;;;0.00;0.00;;;;;21.99;33.35;102056.69;5015825;28;45316;-78
2023/10/15 10:16:51;;;;;;;;;0.50;0.50;;;;;21.84;34.41;102034.09;5015613;28;45273;-78
2023/10/15 10:19:17;;;;;;;;;2.00;0.50;;;;;21.95;34.29;102052.38;5016130;28;46334;-78
2023/10/15 10:21:46;;;;;;;;;0.00;0.00;;;;;21.98;34.11;102052.22;5015178;28;45289;-78
2023/10/15 10:24:12;;;;;;;;;1.00;1.00;;;;;22.03;33.67;102060.94;5015898;28;45525;-77
2023/10/15 10:26:41;;;;;;;;;0.00;0.00;;;;;21.83;34.44;102062.38;5015323;28;45607;-77
2023/10/15 10:29:11;;;;;;;;;1.00;1.00;;;;;21.64;34.22;102069.25;5015289;28;45417;-77
2023/10/15 10:31:39;;;;;;;;;0.00;0.00;;;;;21.73;34.99;102064.00;5015362;28;45444;-78
2023/10/15 10:34:05;;;;;;;;;2.00;0.00;;;;;21.84;34.82;102055.94;5013520;28;45406;-77
2023/10/15 10:36:37;;;;;;;;;1.00;1.00;;;;;21.75;35.04;102022.97;5008230;28;45465;-81
2023/10/15 10:39:10;;;;;;;;;0.00;0.00;;;;;22.10;34.06;102070.44;5003202;28;45523;-79
2023/10/15 10:41:49;;;;;;;;;0.00;0.00;;;;;22.23;33.90;102051.28;5015589;28;45475;-77
2023/10/15 10:44:24;;;;;;;;;0.00;0.00;;;;;22.43;32.80;102072.53;5013506;28;45851;-79
2023/10/15 10:46:52;;;;;;;;;0.50;0.50;;;;;22.48;32.40;102067.59;5013515;28;45263;-79
2023/10/15 10:49:39;;;;;;;;;0.00;0.00;;;;;22.42;31.76;102064.44;5012364;28;45550;-79
2023/10/15 10:52:15;;;;;;;;;1.50;0.50;;;;;22.34;32.50;102054.09;5015165;28;45840;-78
2023/10/15 10:54:41;;;;;;;;;0.00;0.00;;;;;22.45;33.02;102056.91;5015066;28;45392;-77
2023/10/15 10:57:07;;;;;;;;;2.00;2.00;;;;;22.47;32.96;102067.69;4997840;28;46326;-80
2023/10/15 10:59:34;;;;;;;;;1.25;1.25;;;;;22.47;33.44;102054.91;5015191;28;46207;-81
2023/10/15 11:02:00;;;;;;;;;1.00;1.00;;;;;22.55;32.93;102066.13;5015094;28;45404;-79
2023/10/15 11:04:25;;;;;;;;;0.00;0.00;;;;;22.60;32.48;102061.22;5015010;28;45519;-80
2023/10/15 11:06:51;;;;;;;;;1.75;1.00;;;;;22.65;32.88;102059.00;4996565;28;45524;-79
2023/10/15 11:09:19;;;;;;;;;2.00;1.00;;;;;23.02;32.68;102058.94;5014715;28;45404;-79
2023/10/15 11:11:52;;;;;;;;;0.25;0.25;;;;;23.94;29.89;102055.28;4997988;28;45424;-79
2023/10/15 11:14:23;;;;;;;;;1.00;1.00;;;;;24.99;30.00;102061.09;4996905;28;45423;-77
2023/10/15 11:16:54;;;;;;;;;1.50;0.00;;;;;26.01;27.52;102038.31;4980777;28;46055;-77
2023/10/15 11:19:23;;;;;;;;;0.00;0.00;;;;;26.45;26.52;102011.41;5014508;28;45423;-82
2023/10/15 11:21:51;;;;;;;;;2.00;1.00;;;;;27.13;24.86;102061.88;5014549;28;45385;-81
2023/10/15 11:24:17;;;;;;;;;0.00;0.00;;;;;26.90;26.28;102059.38;5014171;28;45461;-79
2023/10/15 11:26:44;;;;;;;;;0.75;0.75;;;;;26.83;25.55;102033.44;5014478;28;45399;-77
2023/10/15 11:29:10;;;;;;;;;0.00;0.00;;;;;27.79;24.34;102049.00;5014490;28;45498;-84
2023/10/15 11:31:44;;;;;;;;;0.00;0.00;;;;;28.67;23.40;102018.03;5014841;28;45532;-79
2023/10/15 11:34:12;;;;;;;;;1.50;1.50;;;;;29.90;22.25;102040.09;5015106;28;45331;-84
2023/10/15 11:36:39;;;;;;;;;0.25;0.25;;;;;30.70;20.75;102016.59;4996047;28;46915;-82
2023/10/15 11:39:08;;;;;;;;;0.00;0.00;;;;;31.67;20.28;102040.66;5014804;28;46126;-83
2023/10/15 11:41:36;;;;;;;;;0.25;0.25;;;;;32.53;18.97;102035.13;5014587;28;45356;-82
2023/10/15 11:44:04;;;;;;;;;0.75;0.75;;;;;32.59;19.32;102015.81;5015668;28;45524;-81
2023/10/15 11:46:30;;;;;;;;;1.75;0.00;;;;;32.22;19.52;102022.13;4995796;28;47966;-82
2023/10/15 11:49:00;;;;;;;;;1.00;1.00;;;;;31.88;20.14;102041.81;5014443;28;45258;-83
2023/10/15 11:51:30;;;;;;;;;0.00;0.00;;;;;32.29;19.57;102034.22;5014206;28;45324;-80
2023/10/15 11:53:58;;;;;;;;;1.00;1.00;;;;;32.33;19.69;102014.44;4964844;28;45438;-77
2023/10/15 11:56:26;;;;;;;;;0.75;0.75;;;;;31.60;19.38;102009.97;4996318;28;46171;-78
2023/10/15 11:58:52;;;;;;;;;1.50;0.00;;;;;31.44;19.86;102024.72;4995967;28;48529;-79
2023/10/15 12:01:17;;;;;;;;;0.00;0.00;;;;;31.95;18.46;102004.00;4997900;28;45505;-78
2023/10/15 12:03:43;;;;;;;;;0.00;0.00;;;;;32.62;17.59;102017.34;5016588;28;45381;-79
2023/10/15 12:06:09;;;;;;;;;0.50;0.50;;;;;33.28;17.03;102019.47;4996536;28;46156;-78
2023/10/15 12:08:34;;;;;;;;;0.25;0.25;;;;;33.69;17.06;102013.47;4996017;28;47316;-78
2023/10/15 12:11:00;;;;;;;;;0.00;0.00;;;;;34.00;16.94;102000.28;5014232;28;45362;-77
2023/10/15 12:13:25;;;;;;;;;0.00;0.00;;;;;34.25;16.83;102000.84;4996809;28;45423;-77
2023/10/15 12:15:51;;;;;;;;;1.00;1.00;;;;;34.08;16.85;101993.75;5012614;28;45549;-78
2023/10/15 12:18:16;;;;;;;;;0.75;0.00;;;;;33.90;17.17;101990.50;5014153;28;45450;-78
2023/10/15 12:20:42;;;;;;;;;0.00;0.00;;;;;33.85;17.17;102001.38;5013693;28;45197;-77
2023/10/15 12:23:07;;;;;;;;;1.00;1.00;;;;;33.69;16.48;101996.78;5013127;28;45626;-75
2023/10/15 12:25:38;;;;;;;;;0.75;0.75;;;;;33.59;17.25;102001.81;5011586;28;45413;-76
2023/10/15 12:28:07;;;;;;;;;0.25;0.25;;;;;33.47;16.42;101994.97;5013410;28;46058;-77
2023/10/15 12:30:33;;;;;;;;;0.50;0.50;;;;;33.23;16.73;101983.06;5012843;28;45432;-77
2023/10/15 12:32:58;;;;;;;;;1.75;0.00;;;;;33.25;16.87;101986.53;5013555;28;45395;-78
2023/10/15 12:35:27;;;;;;;;;0.00;0.00;;;;;33.11;16.58;101983.66;5014949;28;46546;-79
2023/10/15 12:38:02;;;;;;;;;3.25;2.00;;;;;33.13;17.31;101987.13;5013451;28;46002;-76
2023/10/15 12:40:34;;;;;;;;;0.00;0.00;;;;;33.09;17.20;101980.22;5015987;28;45458;-75
2023/10/15 12:43:09;;;;;;;;;0.50;0.00;;;;;32.90;16.46;101976.03;5017110;28;45417;-76
2023/10/15 12:45:35;;;;;;;;;0.00;0.00;;;;;32.48;14.77;101965.41;5015114;28;45386;-75
2023/10/15 12:48:01;;;;;;;;;0.00;0.00;;;;;32.33;15.43;101971.72;5016121;28;46482;-76
2023/10/15 12:50:27;;;;;;;;;0.00;0.00;;;;;32.07;15.39;101962.00;5015951;28;45394;-76
2023/10/15 12:52:56;;;;;;;;;0.00;0.00;;;;;31.78;16.08;101957.09;5016011;28;45419;-76
2023/10/15 12:55:23;;;;;;;;;0.00;0.00;;;;;31.41;16.09;101977.09;5015802;28;45534;-80
2023/10/15 12:57:50;;;;;;;;;0.00;0.00;;;;;30.94;16.50;101963.97;5011842;28;45493;-77
2023/10/15 13:00:21;;;;;;;;;1.50;0.00;;;;;30.59;16.66;101970.72;5017859;28;45681;-78
2023/10/15 13:02:50;;;;;;;;;0.00;0.00;;;;;30.20;16.28;101973.16;5017162;28;45440;-77
2023/10/15 13:05:24;;;;;;;;;0.00;0.00;;;;;29.85;16.75;101963.19;5016624;28;45462;-78
2023/10/15 13:07:51;;;;;;;;;0.00;0.00;;;;;29.64;16.90;101958.06;5015997;28;45430;-79
2023/10/15 13:10:18;;;;;;;;;0.00;0.00;;;;;29.31;16.68;101925.75;5016608;28;45403;-78
2023/10/15 13:12:55;;;;;;;;;0.50;0.50;;;;;29.50;17.44;101975.28;5016722;28;45351;-80
2023/10/15 13:15:22;;;;;;;;;0.50;0.50;;;;;29.54;17.01;101971.16;5016380;28;45344;-78
2023/10/15 13:17:48;;;;;;;;;0.00;0.00;;;;;29.55;17.41;101966.47;5015961;28;45332;-77
2023/10/15 13:20:17;;;;;;;;;0.50;0.00;;;;;29.65;17.88;101970.88;5015788;28;45371;-78
2023/10/15 13:22:44;;;;;;;;;0.00;0.00;;;;;29.60;17.84;101966.88;5016283;28;45418;-80
2023/10/15 13:25:11;;;;;;;;;0.00;0.00;;;;;29.72;17.49;101960.88;5016610;28;45534;-76
2023/10/15 13:27:38;;;;;;;;;0.00;0.00;;;;;29.82;17.43;101970.94;5016110;28;45417;-79
2023/10/15 13:30:04;;;;;;;;;0.00;0.00;;;;;29.71;17.19;101963.78;5016211;28;45428;-77
2023/10/15 13:32:29;;;;;;;;;0.00;0.00;;;;;29.55;17.09;101961.81;5014868;28;45476;-79
2023/10/15 13:34:54;;;;;;;;;0.00;0.00;;;;;29.60;17.42;101970.47;5014328;28;45559;-77
2023/10/15 13:37:20;;;;;;;;;0.00;0.00;;;;;29.52;16.04;101964.06;5015696;28;46455;-78
2023/10/15 13:39:49;;;;;;;;;0.00;0.00;;;;;29.51;15.99;101960.44;5015986;28;45509;-77
2023/10/15 13:42:15;;;;;;;;;1.00;0.00;;;;;29.57;16.10;101964.44;5015924;28;45324;-78
2023/10/15 13:44:41;;;;;;;;;0.00;0.00;;;;;29.07;15.75;101973.41;4982134;28;45460;-77
2023/10/15 13:47:06;;;;;;;;;0.00;0.00;;;;;28.94;16.83;101964.66;5015701;28;49521;-78
2023/10/15 13:49:32;;;;;;;;;0.00;0.00;;;;;29.14;17.79;101976.38;5016232;28;45225;-78
2023/10/15 13:51:57;;;;;;;;;0.00;0.00;;;;;29.12;17.70;101987.56;5015925;28;45233;-77
2023/10/15 13:54:23;;;;;;;;;0.00;0.00;;;;;29.32;16.69;101972.53;5012797;28;45552;-78
2023/10/15 13:56:48;;;;;;;;;0.00;0.00;;;;;29.66;16.95;101961.53;5001735;28;45567;-78
2023/10/15 13:59:14;;;;;;;;;0.75;0.25;;;;;30.09;15.53;101973.50;5015487;28;45359;-76
2023/10/15 14:01:41;;;;;;;;;0.00;0.00;;;;;30.13;16.38;101957.41;5015956;28;45654;-78
2023/10/15 14:04:08;;;;;;;;;5.75;5.75;;;;;30.21;16.26;101971.28;5015590;28;45344;-78
2023/10/15 14:06:34;;;;;;;;;0.00;0.00;;;;;30.40;16.12;101976.50;5015240;28;45395;-80
2023/10/15 14:09:00;;;;;;;;;0.00;0.00;;;;;30.23;15.89;101974.75;5015239;28;45303;-77
2023/10/15 14:11:27;;;;;;;;;0.00;0.00;;;;;30.06;16.50;101971.06;4996025;28;45371;-77
2023/10/15 14:13:52;;;;;;;;;0.00;0.00;;;;;29.89;16.20;101959.03;5015611;28;45225;-82
2023/10/15 14:16:19;;;;;;;;;0.00;0.00;;;;;29.81;16.58;101966.44;5015578;28;46308;-79
2023/10/15 14:18:46;;;;;;;;;0.00;0.00;;;;;30.01;16.89;101967.94;4997912;28;45669;-74
2023/10/15 14:21:12;;;;;;;;;0.00;0.00;;;;;30.16;16.81;101960.72;5015955;28;45335;-78
2023/10/15 14:23:38;;;;;;;;;0.00;0.00;;;;;30.36;16.13;101959.41;5015501;28;45423;-75
2023/10/15 14:26:03;;;;;;;;;0.00;0.00;;;;;30.41;16.37;101954.22;5015264;28;46188;-80
2023/10/15 14:28:29;;;;;;;;;0.00;0.00;;;;;30.60;16.83;101960.50;5015222;28;45419;-80
2023/10/15 14:30:54;;;;;;;;;0.75;0.75;;;;;30.82;16.77;101955.13;5015521;28;45262;-78
2023/10/15 14:33:20;;;;;;;;;0.50;0.50;;;;;31.28;16.79;101954.63;5016296;28;45584;-76
2023/10/15 14:35:46;;;;;;;;;1.00;0.00;;;;;31.43;16.07;101964.78;5015404;28;45879;-79
2023/10/15 14:38:11;;;;;;;;;1.50;0.00;;;;;31.44;16.05;101966.53;5011960;28;45443;-78
2023/10/15 14:40:38;;;;;;;;;0.75;0.75;;;;;31.37;15.78;101967.41;5014668;28;45466;-78
2023/10/15 14:43:04;;;;;;;;;0.00;0.00;;;;;31.26;15.94;101976.94;5016366;28;45343;-75
2023/10/15 14:45:30;;;;;;;;;0.25;0.25;;;;;30.83;17.20;101959.63;5015293;28;45589;-79
2023/10/15 14:47:55;;;;;;;;;0.50;0.50;;;;;30.68;17.07;101969.69;5015399;28;45424;-75
2023/10/15 14:50:21;;;;;;;;;0.00;0.00;;;;;30.36;17.22;101961.31;5014784;28;45541;-75
2023/10/15 14:52:47;;;;;;;;;0.00;0.00;;;;;30.21;17.38;101954.69;5014535;28;45483;-79
2023/10/15 14:55:16;;;;;;;;;0.75;0.75;;;;;30.12;17.93;101956.56;5015054;28;45842;-78
2023/10/15 14:57:45;;;;;;;;;0.00;0.00;;;;;30.11;17.45;101965.91;5014330;28;45457;-76
2023/10/15 15:00:14;;;;;;;;;0.50;0.50;;;;;30.11;18.08;101968.69;5014590;28;45469;-78
2023/10/15 15:02:40;;;;;;;;;1.00;1.00;;;;;29.97;17.25;101959.09;5014794;28;45527;-75
2023/10/15 15:05:06;;;;;;;;;0.25;0.00;;;;;29.86;16.83;101962.13;5013847;28;46452;-73
2023/10/15 15:07:31;;;;;;;;;0.00;0.00;;;;;29.58;17.62;101958.75;4996396;28;45281;-75
2023/10/15 15:09:57;;;;;;;;;2.00;0.00;;;;;29.18;17.81;101931.69;5014818;28;45444;-72
2023/10/15 15:12:22;;;;;;;;;0.00;0.00;;;;;28.85;18.08;101952.69;5014947;28;45484;-74
2023/10/15 15:14:48;;;;;;;;;2.00;0.25;;;;;28.68;18.80;101941.63;5014183;28;46007;-73
2023/10/15 15:17:14;;;;;;;;;0.75;0.00;;;;;28.52;19.00;101948.72;5014455;28;45526;-72
2023/10/15 15:19:43;;;;;;;;;5.00;4.75;;;;;28.30;18.99;101951.09;5013515;28;45485;-73
2023/10/15 15:22:10;;;;;;;;;0.00;0.00;;;;;28.06;18.71;101965.44;5014281;28;45285;-73
2023/10/15 15:24:37;;;;;;;;;0.00;0.00;;;;;27.74;18.75;101954.88;5009041;28;46549;-76
2023/10/15 15:27:03;;;;;;;;;2.00;0.00;;;;;27.42;18.43;101950.63;5013444;28;45790;-74
2023/10/15 15:29:28;;;;;;;;;0.00;0.00;;;;;26.99;18.84;101956.69;5005933;28;45644;-73
2023/10/15 15:31:55;;;;;;;;;1.00;0.00;;;;;26.67;18.87;101926.72;5012914;28;45373;-76
2023/10/15 15:34:21;;;;;;;;;0.00;0.00;;;;;26.73;19.67;101958.28;4993103;28;47096;-71
2023/10/15 15:36:47;;;;;;;;;0.00;0.00;;;;;26.76;19.63;101955.25;5011929;28;46011;-74
2023/10/15 15:39:12;;;;;;;;;0.00;0.00;;;;;26.66;18.88;101957.13;5011601;28;45486;-73
2023/10/15 15:41:38;;;;;;;;;0.00;0.00;;;;;26.59;19.74;101959.59;5014310;28;45509;-75
2023/10/15 15:44:04;;;;;;;;;0.00;0.00;;;;;26.33;20.44;101942.78;4996956;28;46201;-74
2023/10/15 15:46:30;;;;;;;;;0.00;0.00;;;;;26.29;19.94;101963.31;5013164;28;45348;-71
2023/10/15 15:48:58;;;;;;;;;1.00;0.00;;;;;26.25;20.39;101966.47;4995566;28;45440;-74
2023/10/15 15:51:23;;;;;;;;;0.00;0.00;;;;;26.08;20.53;101956.19;4994641;28;46342;-76
2023/10/15 15:53:52;;;;;;;;;0.00;0.00;;;;;26.02;20.57;101965.00;5012928;28;45384;-72
2023/10/15 15:56:17;;;;;;;;;0.50;0.50;;;;;25.79;20.22;101947.84;5008917;28;45534;-75
2023/10/15 15:58:43;;;;;;;;;0.00;0.00;;;;;25.69;21.05;101952.47;4997286;28;45578;-74
2023/10/15 16:01:09;;;;;;;;;0.00;0.00;;;;;25.62;21.14;101961.22;5011217;28;46946;-73
2023/10/15 16:03:35;;;;;;;;;0.00;0.00;;;;;25.54;21.67;101958.28;5012321;28;45579;-73
2023/10/15 16:06:04;;;;;;;;;1.50;0.00;;;;;25.41;21.67;101962.25;5012875;28;45454;-75
2023/10/15 16:08:30;;;;;;;;;2.00;0.00;;;;;25.34;21.40;101966.56;5013480;28;45450;-75
2023/10/15 16:10:56;;;;;;;;;5.00;1.00;;;;;25.22;21.01;101957.53;5015867;28;45546;-73
2023/10/15 16:13:23;;;;;;;;;4.00;2.00;;;;;25.17;21.07;101954.34;5018685;28;45816;-75
2023/10/15 16:15:51;;;;;;;;;1.50;1.50;;;;;25.08;22.22;101971.59;5020197;28;45399;-75
2023/10/15 16:18:17;;;;;;;;;5.00;2.00;;;;;24.99;21.44;101972.41;5018663;28;45502;-77
2023/10/15 16:20:42;;;;;;;;;0.25;0.25;;;;;24.92;21.88;101963.84;4998991;28;46885;-77
2023/10/15 16:23:09;;;;;;;;;1.50;1.25;;;;;24.88;22.54;101978.78;4998724;28;47413;-72
2023/10/15 16:25:34;;;;;;;;;1.00;1.00;;;;;24.66;21.98;101984.41;5017110;28;45423;-76
2023/10/15 16:28:00;;;;;;;;;1.25;1.00;;;;;24.59;22.94;101983.16;4999577;28;45434;-74
2023/10/15 16:30:25;;;;;;;;;1.50;1.00;;;;;24.49;22.75;101989.44;5017337;28;45363;-76
2023/10/15 16:32:55;;;;;;;;;1.25;1.00;;;;;24.40;22.99;101981.13;5017198;28;45351;-78
2023/10/15 16:35:20;;;;;;;;;0.50;0.50;;;;;24.29;23.17;101979.28;5017045;28;45237;-75
2023/10/15 16:37:47;;;;;;;;;2.00;1.00;;;;;24.23;23.35;101985.28;5017022;28;45247;-75
2023/10/15 16:40:17;;;;;;;;;1.00;1.00;;;;;24.15;23.06;101987.78;5016899;28;45449;-77
2023/10/15 16:42:43;;;;;;;;;0.50;0.50;;;;;23.99;23.63;101970.84;4998732;28;47130;-74
2023/10/15 16:45:08;;;;;;;;;1.00;1.00;;;;;23.94;22.98;101984.06;5017374;28;45320;-73
2023/10/15 16:47:36;;;;;;;;;0.00;0.00;;;;;23.80;23.93;101973.38;4999319;28;45453;-78
2023/10/15 16:50:03;;;;;;;;;2.00;0.75;;;;;23.80;23.73;101989.81;5016760;28;45627;-73
2023/10/15 16:52:29;;;;;;;;;0.50;0.50;;;;;23.72;23.84;101993.19;4998943;28;46185;-73
2023/10/15 16:54:54;;;;;;;;;2.00;1.25;;;;;23.65;23.65;101992.78;4998922;28;45537;-70
2023/10/15 16:57:19;;;;;;;;;0.00;0.00;;;;;23.61;23.43;101982.22;5017265;28;45959;-72
2023/10/15 16:59:45;;;;;;;;;0.50;0.50;;;;;23.53;23.24;101998.38;5016816;28;45674;-72
2023/10/15 17:02:10;;;;;;;;;4.00;1.00;;;;;23.38;24.66;101995.00;5017159;28;46370;-73
2023/10/15 17:04:35;;;;;;;;;3.75;1.00;;;;;23.36;24.46;101989.63;5016472;28;45265;-73
2023/10/15 17:07:01;;;;;;;;;0.00;0.00;;;;;23.25;23.86;101992.34;5017162;28;45419;-72
2023/10/15 17:09:26;;;;;;;;;0.00;0.00;;;;;23.27;25.22;102000.44;5017111;28;45376;-75
2023/10/15 17:11:53;;;;;;;;;1.00;0.75;;;;;23.10;24.97;101985.38;4998794;28;46962;-75
2023/10/15 17:14:19;;;;;;;;;0.25;0.25;;;;;23.26;25.79;102006.91;4998407;28;45395;-79
2023/10/15 17:16:44;;;;;;;;;3.50;2.00;;;;;23.22;25.06;102009.00;5016742;28;45272;-77
2023/10/15 17:19:09;;;;;;;;;1.00;1.00;;;;;23.19;24.65;102005.66;5016289;28;45309;-77
2023/10/15 17:21:35;;;;;;;;;1.50;1.50;;;;;23.15;24.22;102015.06;5016230;28;46521;-77
2023/10/15 17:24:01;;;;;;;;;2.00;2.00;;;;;23.11;24.04;102013.59;5016515;28;45308;-76
2023/10/15 17:26:26;;;;;;;;;3.00;2.00;;;;;22.93;24.56;102000.34;5016406;28;45473;-76
2023/10/15 17:28:51;;;;;;;;;0.75;0.75;;;;;22.91;25.03;102023.34;4998002;28;46201;-77
2023/10/15 17:31:17;;;;;;;;;3.00;0.50;;;;;22.73;25.07;102016.53;5017307;28;45684;-76
2023/10/15 17:33:44;;;;;;;;;2.00;0.00;;;;;22.69;25.28;102024.09;5016237;28;45213;-79
2023/10/15 17:36:09;;;;;;;;;1.75;0.25;;;;;22.75;24.84;102020.94;5016229;28;45271;-77
2023/10/15 17:38:35;;;;;;;;;0.00;0.00;;;;;22.55;25.10;102019.66;5013108;28;45409;-79
2023/10/15 17:41:01;;;;;;;;;2.00;2.00;;;;;22.61;25.01;102037.47;5016704;28;45518;-83
2023/10/15 17:43:26;;;;;;;;;2.00;2.00;;;;;22.48;25.51;102018.41;4999405;28;45320;-80
2023/10/15 17:45:52;;;;;;;;;1.00;1.00;;;;;22.42;25.64;102024.34;5016392;28;45389;-80
2023/10/15 17:48:18;;;;;;;;;1.00;1.00;;;;;22.49;25.38;102025.59;5015591;28;45531;-78
2023/10/15 17:50:52;;;;;;;;;1.00;1.00;;;;;22.44;25.46;102022.38;5015630;28;46149;-78
2023/10/15 17:53:17;;;;;;;;;2.00;2.00;;;;;22.41;25.24;102018.97;5013257;28;45486;-80
2023/10/15 17:55:43;;;;;;;;;1.50;1.00;;;;;22.11;24.61;101960.22;4998328;28;45450;-79
2023/10/15 17:58:08;;;;;;;;;1.00;1.00;;;;;22.40;25.04;102018.09;5016578;28;45480;-79
2023/10/15 18:00:36;;;;;;;;;0.50;0.50;;;;;22.06;24.95;101976.06;5011033;28;45473;-81
2023/10/15 18:03:01;;;;;;;;;1.75;0.75;;;;;22.14;25.29;101994.59;5014887;28;45404;-80
2023/10/15 18:05:27;;;;;;;;;2.75;2.00;;;;;22.25;25.00;102022.88;4996724;28;45586;-78
2023/10/15 18:07:52;;;;;;;;;0.75;0.75;;;;;22.23;25.35;102022.09;4998601;28;46293;-76
2023/10/15 18:10:20;;;;;;;;;2.00;2.00;;;;;22.21;25.35;102020.47;5014286;28;46352;-75
2023/10/15 18:12:47;;;;;;;;;2.00;2.00;;;;;22.18;25.60;102018.84;5015396;28;45387;-73
2023/10/15 18:15:12;;;;;;;;;2.50;2.50;;;;;22.16;25.60;102018.09;5024695;28;45466;-72
2023/10/15 18:17:37;;;;;;;;;1.50;1.50;;;;;22.13;25.62;102011.97;5028259;28;46368;-72
2023/10/15 18:20:03;;;;;;;;;1.50;1.50;;;;;22.14;25.44;102010.97;5019744;28;46236;-72
2023/10/15 18:22:29;;;;;;;;;2.00;2.00;;;;;22.13;25.52;102011.97;5030441;28;45373;-69
2023/10/15 18:24:54;;;;;;;;;1.00;1.00;;;;;22.08;25.29;102014.19;5027443;28;45468;-71
2023/10/15 18:27:20;;;;;;;;;2.00;2.00;;;;;22.01;25.27;102007.44;5027465;28;45434;-72
2023/10/15 18:29:45;;;;;;;;;1.75;1.75;;;;;22.00;25.30;102013.88;5017453;28;45419;-71
2023/10/15 18:32:11;;;;;;;;;2.00;2.00;;;;;21.99;25.55;102001.19;5001432;28;45265;-70
2023/10/15 18:34:36;;;;;;;;;2.00;2.00;;;;;21.95;25.63;102000.50;5001830;28;45407;-71
2023/10/15 18:37:01;;;;;;;;;3.50;3.50;;;;;21.91;25.86;102009.94;5021501;28;45262;-70
2023/10/15 18:39:27;;;;;;;;;5.00;5.00;;;;;21.87;26.03;102012.00;5019041;28;45907;-70
2023/10/15 18:41:53;;;;;;;;;2.75;2.75;;;;;21.83;25.65;102006.88;5019142;28;45400;-71
2023/10/15 18:44:19;;;;;;;;;3.75;3.00;;;;;21.81;25.90;102011.56;5016970;28;45394;-73
2023/10/15 18:46:46;;;;;;;;;4.00;4.00;;;;;21.76;26.14;102000.13;5014304;28;45629;-71
2023/10/15 18:49:11;;;;;;;;;3.25;3.25;;;;;21.81;25.97;102007.00;4996661;28;48208;-73
2023/10/15 18:51:36;;;;;;;;;1.50;1.50;;;;;21.79;26.41;102010.81;5012282;28;45466;-75
2023/10/15 18:54:03;;;;;;;;;2.00;2.00;;;;;21.75;26.05;101999.25;5019381;28;45606;-74
2023/10/15 18:56:28;;;;;;;;;4.25;3.50;;;;;21.69;25.86;101987.94;4996873;28;47400;-70
2023/10/15 18:58:54;;;;;;;;;1.75;1.75;;;;;21.71;26.17;102002.31;5004975;28;46083;-73
2023/10/15 19:01:22;;;;;;;;;3.50;2.50;;;;;21.74;25.72;101997.50;5013698;28;45966;-73
2023/10/15 19:03:47;;;;;;;;;4.00;2.00;;;;;21.77;25.92;102001.88;5012707;28;45312;-73
2023/10/15 19:06:13;;;;;;;;;2.25;2.25;;;;;21.68;26.17;101992.50;5011275;28;45551;-72
2023/10/15 19:08:39;;;;;;;;;2.00;2.00;;;;;21.62;25.80;101992.06;4994428;28;46140;-73
2023/10/15 19:11:04;;;;;;;;;3.25;3.00;;;;;21.59;26.13;101986.84;5013733;28;45331;-74
2023/10/15 19:13:29;;;;;;;;;1.75;1.75;;;;;21.65;25.86;101991.84;5012915;28;45328;-74
2023/10/15 19:15:55;;;;;;;;;1.25;1.25;;;;;21.56;25.89;101987.06;5011340;28;45655;-73
2023/10/15 19:18:23;;;;;;;;;5.50;2.00;;;;;21.69;25.93;101985.19;4994802;28;48256;-75
2023/10/15 19:20:48;;;;;;;;;2.75;2.50;;;;;21.71;25.63;101984.06;5012119;28;45387;-73
2023/10/15 19:23:15;;;;;;;;;2.00;2.00;;;;;21.69;26.44;101991.50;5012604;28;45454;-74
2023/10/15 19:25:40;;;;;;;;;2.25;2.25;;;;;21.59;26.33;101990.44;5013071;28;45304;-74
2023/10/15 19:28:06;;;;;;;;;2.00;2.00;;;;;21.60;26.48;101992.19;5012711;28;45437;-72